Time;durP1;ratioP1;P1;durP2;ratioP2;P2;SDS_P1;SDS_P2;PMS_P1;PMS_P2;Temp;Humidity;BMP_temperature;BMP_pressure;BME280_temperature;BME280_humidity;BME280_pressure;Samples;Min_cycle;Max_cycle;Signal;HPM_P1;HPM_P2
2022/06/09 00:00:10;;;;;;;;;;;17.20;99.90;17.30;99360.00;;;;345914;28;90335;-87
2022/06/09 00:00:22;;;;;;;;;;;17.20;99.90;17.30;99357.00;;;;348540;27;86878;-87
2022/06/09 00:00:34;;;;;;;;;;;17.10;99.90;17.20;99357.00;;;;344613;28;90581;-87
2022/06/09 00:00:50;;;;;;;;;;;17.20;99.90;17.30;99361.00;;;;347079;28;86945;-87
2022/06/09 00:01:10;;;;;;;;;;;17.20;99.90;17.30;99358.00;;;;345842;28;90447;-88
2022/06/09 00:01:43;;;;;;;;;;;17.20;99.90;17.40;99363.00;;;;344317;28;88102;-87
2022/06/09 00:01:57;;;;;;;;;;;17.20;99.90;17.40;99357.00;;;;344556;28;90885;-88
2022/06/09 00:02:09;;;;;;;;;;;17.20;99.90;17.40;99363.00;;;;344309;28;87734;-88
2022/06/09 00:02:21;;;;;;;;;;;17.20;99.90;17.40;99360.00;;;;347264;28;90165;-88
2022/06/09 00:02:35;;;;;;;;;;;17.20;99.90;17.40;99356.00;;;;345666;28;86956;-88
2022/06/09 00:02:48;;;;;;;;;;;17.20;99.90;17.40;99344.00;;;;345987;28;90865;-87
2022/06/09 00:03:01;;;;;;;;;;;17.20;99.90;17.40;99349.00;;;;345689;28;87756;-88
2022/06/09 00:03:17;;;;;;;;;;;17.20;99.90;17.40;99354.00;;;;345816;28;89896;-88
2022/06/09 00:03:35;;;;;;;;;;;17.20;99.90;17.40;99353.00;;;;348387;27;88240;-88
2022/06/09 00:03:50;;;;;;;;;;;17.20;99.90;17.30;99355.00;;;;344459;28;89475;-88
2022/06/09 00:04:12;;;;;;;;;;;17.20;99.90;17.30;99350.00;;;;340179;28;86923;-87
2022/06/09 00:04:30;;;;;;;;;;;17.20;99.90;17.30;99356.00;;;;339257;28;89685;-87
2022/06/09 00:04:42;;;;;;;;;;;17.20;99.90;17.30;99356.00;;;;340253;28;88168;-88
2022/06/09 00:04:54;;;;;;;;;;;17.20;99.90;17.30;99362.00;;;;340511;28;90116;-88
2022/06/09 00:05:06;;;;;;;;;;;17.20;99.90;17.30;99357.00;;;;336245;28;87759;-88
2022/06/09 00:05:18;;;;;;;;;;;17.20;99.90;17.30;99357.00;;;;339062;28;90586;-87
2022/06/09 00:05:30;;;;;;;;;;;17.20;99.90;17.20;99365.00;;;;339002;28;86916;-88
2022/06/09 00:05:42;;;;;;;;;;;17.20;99.90;17.30;99358.00;;;;337752;28;89612;-87
2022/06/09 00:05:54;;;;;;;;;;;17.20;99.90;17.30;99364.00;;;;339013;28;86854;-88
2022/06/09 00:06:06;;;;;;;;;;;17.20;99.90;17.30;99360.00;;;;340794;28;90855;-88
2022/06/09 00:06:18;;;;;;;;;;;17.20;99.90;17.30;99360.00;;;;337151;28;87059;-88
2022/06/09 00:06:33;;;;;;;;;;;17.20;99.90;17.40;99361.00;;;;340451;28;90770;-88
2022/06/09 00:06:59;;;;;;;;;;;17.20;99.90;17.40;99365.00;;;;338875;28;87075;-87
2022/06/09 00:07:15;;;;;;;;;;;17.20;99.90;17.40;99361.00;;;;338360;28;88827;-88
2022/06/09 00:07:27;;;;;;;;;;;17.20;99.90;17.30;99358.00;;;;340235;28;86833;-87
2022/06/09 00:07:39;;;;;;;;;;;17.20;99.90;17.30;99361.00;;;;340778;28;88867;-88
2022/06/09 00:07:51;;;;;;;;;;;17.20;99.90;17.20;99362.00;;;;340265;28;86800;-88
2022/06/09 00:08:04;;;;;;;;;;;17.20;99.90;17.30;99362.00;;;;341748;28;89531;-87
2022/06/09 00:08:16;;;;;;;;;;;17.20;99.90;17.30;99361.00;;;;337708;28;87695;-87
2022/06/09 00:08:28;;;;;;;;;;;17.20;99.90;17.20;99356.00;;;;339066;28;90502;-88
2022/06/09 00:08:43;;;;;;;;;;;17.20;99.90;17.20;99368.00;;;;342996;28;86931;-88
2022/06/09 00:08:55;;;;;;;;;;;17.20;99.90;17.30;99362.00;;;;338993;28;90917;-88
2022/06/09 00:09:07;;;;;;;;;;;17.20;99.90;17.30;99358.00;;;;338559;28;86415;-88
2022/06/09 00:09:20;;;;;;;;;;;17.20;99.90;17.30;99358.00;;;;341822;28;88685;-88
2022/06/09 00:09:40;;;;;;;;;;;17.20;99.90;17.30;99363.00;;;;338906;28;87873;-87
2022/06/09 00:09:58;;;;;;;;;;;17.20;99.90;17.30;99370.00;;;;340565;28;89565;-88
2022/06/09 00:10:13;;;;;;;;;;;17.20;99.90;17.30;99370.00;;;;340808;28;86570;-88
2022/06/09 00:10:27;;;;;;;;;;;17.20;99.90;17.30;99358.00;;;;339045;28;90982;-87
2022/06/09 00:10:41;;;;;;;;;;;17.20;99.90;17.20;99367.00;;;;338882;28;87867;-88
2022/06/09 00:10:58;;;;;;;;;;;17.20;99.90;17.20;99368.00;;;;347588;28;89286;-88
2022/06/09 00:11:12;;;;;;;;;;;17.20;99.90;17.20;99366.00;;;;344537;28;86472;-87
2022/06/09 00:11:24;;;;;;;;;;;17.20;99.90;17.20;99368.00;;;;337863;28;89595;-87
2022/06/09 00:11:40;;;;;;;;;;;17.20;99.90;17.30;99375.00;;;;338974;28;86651;-88
2022/06/09 00:11:52;;;;;;;;;;;17.10;99.90;17.30;99369.00;;;;340413;28;89776;-87
2022/06/09 00:12:05;;;;;;;;;;;17.20;99.90;17.30;99368.00;;;;338898;28;87064;-87
2022/06/09 00:12:17;;;;;;;;;;;17.10;99.90;17.30;99367.00;;;;339152;28;90415;-88
2022/06/09 00:12:30;;;;;;;;;;;17.20;99.90;17.40;99370.00;;;;337591;28;86369;-87
2022/06/09 00:12:42;;;;;;;;;;;17.20;99.90;17.40;99371.00;;;;339273;28;89702;-88
2022/06/09 00:12:53;;;;;;;;;;;17.20;99.90;17.30;99370.00;;;;338973;28;87586;-88
2022/06/09 00:13:05;;;;;;;;;;;17.20;99.90;17.30;99376.00;;;;339122;28;89845;-88
2022/06/09 00:13:18;;;;;;;;;;;17.10;99.90;17.30;99377.00;;;;340078;28;87323;-87
2022/06/09 00:13:29;;;;;;;;;;;17.10;99.90;17.40;99363.00;;;;340529;28;89561;-88
2022/06/09 00:13:41;;;;;;;;;;;17.10;99.90;17.40;99375.00;;;;336155;28;86679;-87
2022/06/09 00:13:53;;;;;;;;;;;17.10;99.90;17.40;99376.00;;;;337870;28;88768;-88
2022/06/09 00:14:06;;;;;;;;;;;17.10;99.90;17.40;99375.00;;;;340371;28;86960;-88
2022/06/09 00:14:18;;;;;;;;;;;17.20;99.90;17.30;99375.00;;;;339203;28;89413;-88
2022/06/09 00:14:30;;;;;;;;;;;17.20;99.90;17.30;99378.00;;;;338772;28;88104;-88
2022/06/09 00:14:42;;;;;;;;;;;17.10;99.90;17.40;99376.00;;;;346179;28;90358;-88
2022/06/09 00:14:56;;;;;;;;;;;17.20;99.90;17.50;99379.00;;;;345967;28;87595;-88
2022/06/09 00:15:09;;;;;;;;;;;17.20;99.90;17.50;99379.00;;;;340015;28;90444;-88
2022/06/09 00:15:20;;;;;;;;;;;17.20;99.90;17.60;99376.00;;;;339497;28;88055;-87
2022/06/09 00:15:32;;;;;;;;;;;17.20;99.90;17.60;99378.00;;;;339199;28;90563;-88
2022/06/09 00:15:44;;;;;;;;;;;17.20;99.90;17.70;99374.00;;;;339000;28;86904;-88
2022/06/09 00:15:56;;;;;;;;;;;17.20;99.90;17.70;99376.00;;;;340556;28;89923;-88
2022/06/09 00:16:10;;;;;;;;;;;17.20;99.90;17.70;99375.00;;;;338986;28;86783;-88
2022/06/09 00:16:22;;;;;;;;;;;17.20;99.90;17.60;99375.00;;;;337843;28;89712;-86
2022/06/09 00:16:35;;;;;;;;;;;17.30;99.90;17.50;99372.00;;;;338988;28;87640;-87
2022/06/09 00:16:47;;;;;;;;;;;17.30;99.90;17.50;99378.00;;;;339168;28;90478;-87
2022/06/09 00:16:58;;;;;;;;;;;17.30;99.90;17.50;99373.00;;;;337661;28;87800;-88
2022/06/09 00:17:10;;;;;;;;;;;17.30;99.90;17.40;99374.00;;;;340381;28;90430;-88
2022/06/09 00:17:23;;;;;;;;;;;17.30;99.90;17.40;99378.00;;;;338867;28;87723;-87
2022/06/09 00:17:35;;;;;;;;;;;17.30;99.90;17.40;99382.00;;;;341872;28;89618;-88
2022/06/09 00:17:47;;;;;;;;;;;17.30;99.90;17.50;99379.00;;;;338917;28;87061;-88
2022/06/09 00:17:58;;;;;;;;;;;17.30;99.90;17.60;99374.00;;;;339154;28;89793;-87
2022/06/09 00:18:10;;;;;;;;;;;17.30;99.90;17.50;99382.00;;;;339858;28;87148;-87
2022/06/09 00:18:22;;;;;;;;;;;17.30;99.90;17.60;99387.00;;;;337832;28;89581;-88
2022/06/09 00:18:34;;;;;;;;;;;17.30;99.90;17.50;99383.00;;;;340067;28;86969;-88
2022/06/09 00:18:46;;;;;;;;;;;17.30;99.90;17.40;99386.00;;;;341742;27;91063;-87
2022/06/09 00:18:58;;;;;;;;;;;17.30;99.90;17.40;99377.00;;;;341591;28;86850;-88
2022/06/09 00:19:10;;;;;;;;;;;17.30;99.90;17.30;99387.00;;;;339189;28;89304;-88
2022/06/09 00:19:22;;;;;;;;;;;17.30;99.90;17.40;99390.00;;;;338916;28;86997;-88
2022/06/09 00:19:34;;;;;;;;;;;17.30;99.90;17.50;99386.00;;;;341841;28;89556;-88
2022/06/09 00:19:45;;;;;;;;;;;17.30;99.90;17.50;99392.00;;;;341591;28;87899;-88
2022/06/09 00:19:57;;;;;;;;;;;17.30;99.90;17.60;99383.00;;;;339222;28;88327;-87
2022/06/09 00:20:10;;;;;;;;;;;17.30;99.90;17.60;99397.00;;;;340099;28;87069;-88
2022/06/09 00:20:22;;;;;;;;;;;17.30;99.90;17.60;99390.00;;;;340446;28;89694;-88
2022/06/09 00:20:33;;;;;;;;;;;17.30;99.90;17.50;99390.00;;;;338978;28;87043;-87
2022/06/09 00:20:45;;;;;;;;;;;17.30;99.90;17.40;99397.00;;;;339223;28;90685;-87
2022/06/09 00:20:57;;;;;;;;;;;17.30;99.90;17.50;99391.00;;;;340325;28;87015;-88
2022/06/09 00:21:09;;;;;;;;;;;17.30;99.90;17.50;99389.00;;;;340796;28;90838;-87
2022/06/09 00:21:23;;;;;;;;;;;17.30;99.90;17.50;99388.00;;;;337584;28;87719;-88
2022/06/09 00:21:35;;;;;;;;;;;17.30;99.90;17.60;99387.00;;;;337878;28;89418;-87
2022/06/09 00:21:46;;;;;;;;;;;17.30;99.90;17.60;99392.00;;;;338918;28;86451;-88
2022/06/09 00:21:58;;;;;;;;;;;17.30;99.90;17.70;99385.00;;;;337828;28;89956;-87
2022/06/09 00:22:10;;;;;;;;;;;17.30;99.90;17.50;99391.00;;;;338883;28;86942;-87
2022/06/09 00:22:21;;;;;;;;;;;17.30;99.90;17.60;99389.00;;;;339003;28;89537;-86
2022/06/09 00:22:33;;;;;;;;;;;17.30;99.90;17.60;99391.00;;;;338863;28;87660;-87
2022/06/09 00:22:45;;;;;;;;;;;17.30;99.90;17.60;99389.00;;;;339232;28;91017;-87
2022/06/09 00:22:56;;;;;;;;;;;17.30;99.90;17.50;99385.00;;;;338753;28;87084;-87
2022/06/09 00:23:08;;;;;;;;;;;17.30;99.90;17.50;99389.00;;;;338961;28;90422;-87
2022/06/09 00:23:20;;;;;;;;;;;17.30;99.90;17.50;99384.00;;;;338900;28;87599;-88
2022/06/09 00:23:32;;;;;;;;;;;17.30;99.90;17.50;99376.00;;;;340542;28;91578;-87
2022/06/09 00:23:43;;;;;;;;;;;17.30;99.90;17.60;99378.00;;;;340260;28;86587;-87
2022/06/09 00:23:55;;;;;;;;;;;17.30;99.90;17.60;99386.00;;;;337932;28;88734;-87
2022/06/09 00:24:07;;;;;;;;;;;17.30;99.90;17.60;99383.00;;;;338814;28;87320;-88
2022/06/09 00:24:19;;;;;;;;;;;17.30;99.90;17.60;99385.00;;;;339097;28;89784;-88
2022/06/09 00:24:31;;;;;;;;;;;17.30;99.90;17.70;99386.00;;;;337465;28;86844;-87
2022/06/09 00:24:42;;;;;;;;;;;17.40;99.90;17.70;99382.00;;;;340564;28;89467;-87
2022/06/09 00:24:54;;;;;;;;;;;17.30;99.90;17.60;99387.00;;;;340294;28;87691;-88
2022/06/09 00:25:06;;;;;;;;;;;17.30;99.90;17.60;99385.00;;;;340468;28;90972;-87
2022/06/09 00:25:18;;;;;;;;;;;17.30;99.90;17.50;99387.00;;;;337568;28;87925;-86
2022/06/09 00:25:30;;;;;;;;;;;17.30;99.90;17.50;99388.00;;;;338002;28;87130;-87
2022/06/09 00:25:42;;;;;;;;;;;17.30;99.90;17.50;99387.00;;;;338611;28;86044;-88
2022/06/09 00:25:54;;;;;;;;;;;17.30;99.90;17.50;99389.00;;;;340565;28;89908;-87
2022/06/09 00:26:05;;;;;;;;;;;17.30;99.90;17.60;99398.00;;;;336363;28;86873;-87
2022/06/09 00:26:17;;;;;;;;;;;17.30;99.90;17.60;99394.00;;;;339301;28;89717;-87
2022/06/09 00:26:29;;;;;;;;;;;17.30;99.90;17.60;99391.00;;;;337577;28;87959;-87
2022/06/09 00:26:41;;;;;;;;;;;17.30;99.90;17.70;99393.00;;;;339310;28;89766;-87
2022/06/09 00:26:53;;;;;;;;;;;17.30;99.90;17.70;99393.00;;;;337702;28;86790;-88
2022/06/09 00:27:05;;;;;;;;;;;17.30;99.90;17.60;99382.00;;;;339124;28;90553;-88
2022/06/09 00:27:18;;;;;;;;;;;17.30;99.90;17.50;99388.00;;;;339004;28;86681;-87
2022/06/09 00:27:30;;;;;;;;;;;17.30;99.90;17.60;99395.00;;;;336586;28;89499;-88
2022/06/09 00:27:42;;;;;;;;;;;17.30;99.90;17.60;99395.00;;;;338850;28;87953;-88
2022/06/09 00:27:54;;;;;;;;;;;17.30;99.90;17.60;99391.00;;;;337996;28;89336;-87
2022/06/09 00:28:06;;;;;;;;;;;17.30;99.90;17.50;99400.00;;;;339048;28;87032;-87
2022/06/09 00:28:19;;;;;;;;;;;17.30;99.90;17.50;99394.00;;;;336459;28;89882;-88
2022/06/09 00:28:30;;;;;;;;;;;17.30;99.90;17.60;99402.00;;;;340302;28;88213;-87
2022/06/09 00:28:42;;;;;;;;;;;17.30;99.90;17.60;99390.00;;;;341807;28;90092;-87
2022/06/09 00:28:54;;;;;;;;;;;17.30;99.90;17.60;99387.00;;;;340131;28;87008;-87
2022/06/09 00:29:06;;;;;;;;;;;17.30;99.90;17.40;99395.00;;;;340529;28;89797;-87
2022/06/09 00:29:18;;;;;;;;;;;17.30;99.90;17.40;99385.00;;;;340385;28;86863;-87
2022/06/09 00:29:29;;;;;;;;;;;17.30;99.90;17.50;99388.00;;;;341869;28;89706;-87
2022/06/09 00:29:41;;;;;;;;;;;17.30;99.90;17.60;99393.00;;;;339966;28;85929;-87
2022/06/09 00:29:53;;;;;;;;;;;17.30;99.90;17.60;99387.00;;;;342049;28;90453;-87
2022/06/09 00:30:05;;;;;;;;;;;17.30;99.90;17.60;99389.00;;;;340417;28;86937;-87
2022/06/09 00:30:18;;;;;;;;;;;17.30;99.90;17.60;99388.00;;;;337924;28;90837;-87
2022/06/09 00:30:30;;;;;;;;;;;17.30;99.90;17.60;99395.00;;;;341561;28;87773;-88
2022/06/09 00:30:42;;;;;;;;;;;17.30;99.90;17.60;99384.00;;;;340582;28;89492;-87
2022/06/09 00:30:54;;;;;;;;;;;17.40;99.90;17.60;99391.00;;;;338937;28;88122;-87
2022/06/09 00:31:06;;;;;;;;;;;17.30;99.90;17.60;99390.00;;;;339124;28;89685;-88
2022/06/09 00:31:18;;;;;;;;;;;17.40;99.90;17.60;99388.00;;;;340362;28;86952;-87
2022/06/09 00:31:29;;;;;;;;;;;17.40;99.90;17.60;99388.00;;;;337876;28;90564;-87
2022/06/09 00:31:41;;;;;;;;;;;17.40;99.90;17.60;99391.00;;;;337572;28;87787;-87
2022/06/09 00:31:53;;;;;;;;;;;17.40;99.90;17.60;99388.00;;;;340660;28;88554;-87
2022/06/09 00:32:05;;;;;;;;;;;17.40;99.90;17.70;99389.00;;;;340383;28;86363;-87
2022/06/09 00:32:17;;;;;;;;;;;17.40;99.90;17.60;99394.00;;;;339279;28;89655;-87
2022/06/09 00:32:29;;;;;;;;;;;17.40;99.90;17.60;99387.00;;;;340208;28;87082;-87
2022/06/09 00:32:41;;;;;;;;;;;17.40;99.90;17.60;99392.00;;;;340360;28;90958;-87
2022/06/09 00:32:53;;;;;;;;;;;17.40;99.90;17.60;99386.00;;;;338935;28;87992;-87
2022/06/09 00:33:05;;;;;;;;;;;17.40;99.90;17.50;99397.00;;;;338880;28;90866;-87
2022/06/09 00:33:17;;;;;;;;;;;17.40;99.90;17.50;99390.00;;;;336330;28;87929;-88
2022/06/09 00:33:29;;;;;;;;;;;17.30;99.90;17.60;99389.00;;;;337779;28;90701;-88
2022/06/09 00:33:40;;;;;;;;;;;17.30;99.90;17.60;99391.00;;;;340089;28;86773;-87
2022/06/09 00:33:53;;;;;;;;;;;17.40;99.90;17.70;99390.00;;;;336610;28;90222;-87
2022/06/09 00:34:04;;;;;;;;;;;17.30;99.90;17.60;99386.00;;;;338938;28;87996;-88
2022/06/09 00:34:16;;;;;;;;;;;17.30;99.90;17.60;99385.00;;;;339219;28;91126;-87
2022/06/09 00:34:28;;;;;;;;;;;17.30;99.90;17.70;99393.00;;;;338866;28;87002;-88
2022/06/09 00:34:40;;;;;;;;;;;17.30;99.90;17.70;99394.00;;;;339043;28;91337;-87
2022/06/09 00:34:51;;;;;;;;;;;17.30;99.90;17.50;99387.00;;;;340042;28;87755;-87
2022/06/09 00:35:04;;;;;;;;;;;17.30;99.90;17.60;99387.00;;;;339103;28;89313;-88
2022/06/09 00:35:15;;;;;;;;;;;17.30;99.90;17.50;99387.00;;;;337547;28;88183;-87
2022/06/09 00:35:27;;;;;;;;;;;17.30;99.90;17.60;99387.00;;;;337780;28;89538;-87
2022/06/09 00:35:39;;;;;;;;;;;17.30;99.90;17.50;99392.00;;;;338994;28;87729;-87
2022/06/09 00:35:51;;;;;;;;;;;17.30;99.90;17.50;99382.00;;;;337801;28;89884;-88
2022/06/09 00:36:03;;;;;;;;;;;17.30;99.90;17.40;99392.00;;;;338980;28;86792;-88
2022/06/09 00:36:15;;;;;;;;;;;17.30;99.90;17.30;99386.00;;;;339275;28;89766;-87
2022/06/09 00:36:28;;;;;;;;;;;17.30;99.90;17.40;99393.00;;;;340134;28;87688;-87
2022/06/09 00:36:39;;;;;;;;;;;17.30;99.90;17.50;99394.00;;;;339254;28;89693;-87
2022/06/09 00:36:51;;;;;;;;;;;17.30;99.90;17.50;99392.00;;;;340295;28;86758;-87
2022/06/09 00:37:03;;;;;;;;;;;17.20;99.90;17.50;99399.00;;;;340424;28;90776;-88
2022/06/09 00:37:14;;;;;;;;;;;17.30;99.90;17.60;99392.00;;;;338999;28;87843;-87
2022/06/09 00:37:26;;;;;;;;;;;17.30;99.90;17.50;99389.00;;;;339217;28;90825;-88
2022/06/09 00:37:38;;;;;;;;;;;17.30;99.90;17.50;99386.00;;;;337710;28;86947;-88
2022/06/09 00:37:50;;;;;;;;;;;17.30;99.90;17.40;99394.00;;;;340485;28;89096;-88
2022/06/09 00:38:01;;;;;;;;;;;17.30;99.90;17.50;99390.00;;;;340261;28;86877;-88
2022/06/09 00:38:13;;;;;;;;;;;17.30;99.90;17.50;99392.00;;;;339297;28;90829;-87
2022/06/09 00:38:25;;;;;;;;;;;17.30;99.90;17.50;99388.00;;;;338881;28;86827;-87
2022/06/09 00:38:37;;;;;;;;;;;17.30;99.90;17.40;99387.00;;;;347707;27;89526;-87
2022/06/09 00:38:49;;;;;;;;;;;17.30;99.90;17.40;99391.00;;;;337596;28;87940;-88
2022/06/09 00:39:00;;;;;;;;;;;17.20;99.90;17.30;99387.00;;;;346244;28;91029;-87
2022/06/09 00:39:12;;;;;;;;;;;17.20;99.90;17.40;99388.00;;;;339582;28;88148;-87
2022/06/09 00:39:24;;;;;;;;;;;17.20;99.90;17.50;99392.00;;;;337907;28;91012;-88
2022/06/09 00:39:35;;;;;;;;;;;17.20;99.90;17.30;99386.00;;;;337572;28;86357;-87
2022/06/09 00:39:47;;;;;;;;;;;17.20;99.90;17.30;99395.00;;;;341613;27;89379;-87
2022/06/09 00:39:59;;;;;;;;;;;17.20;99.90;17.40;99390.00;;;;340410;28;88089;-87
2022/06/09 00:40:13;;;;;;;;;;;17.20;99.90;17.40;99390.00;;;;340588;28;90511;-87
2022/06/09 00:40:25;;;;;;;;;;;17.20;99.90;17.30;99393.00;;;;338944;28;86864;-88
2022/06/09 00:40:37;;;;;;;;;;;17.20;99.90;17.40;99391.00;;;;339215;28;89568;-87
2022/06/09 00:40:48;;;;;;;;;;;17.20;99.90;17.40;99393.00;;;;338925;28;86877;-87
2022/06/09 00:41:00;;;;;;;;;;;17.20;99.90;17.40;99396.00;;;;337904;28;89495;-87
2022/06/09 00:41:12;;;;;;;;;;;17.20;99.90;17.40;99394.00;;;;339055;28;88328;-87
2022/06/09 00:41:25;;;;;;;;;;;17.20;99.90;17.50;99390.00;;;;337920;28;89490;-88
2022/06/09 00:41:40;;;;;;;;;;;17.20;99.90;17.30;99391.00;;;;339014;28;86551;-87
2022/06/09 00:41:52;;;;;;;;;;;17.20;99.90;17.30;99396.00;;;;344934;28;88624;-88
2022/06/09 00:42:05;;;;;;;;;;;17.20;99.90;17.40;99396.00;;;;344437;28;86747;-87
2022/06/09 00:42:17;;;;;;;;;;;17.20;99.90;17.40;99387.00;;;;339300;28;90636;-87
2022/06/09 00:42:29;;;;;;;;;;;17.20;99.90;17.40;99391.00;;;;337447;28;88190;-87
2022/06/09 00:42:41;;;;;;;;;;;17.20;99.90;17.30;99397.00;;;;339248;28;90449;-87
2022/06/09 00:42:52;;;;;;;;;;;17.20;99.90;17.30;99395.00;;;;338852;28;86898;-88
2022/06/09 00:43:04;;;;;;;;;;;17.20;99.90;17.30;99396.00;;;;339036;28;89718;-87
2022/06/09 00:43:17;;;;;;;;;;;17.20;99.90;17.40;99392.00;;;;343202;28;88011;-87
2022/06/09 00:43:30;;;;;;;;;;;17.20;99.90;17.30;99392.00;;;;345993;28;90275;-87
2022/06/09 00:43:42;;;;;;;;;;;17.20;99.90;17.40;99396.00;;;;338890;28;86459;-87
2022/06/09 00:44:17;;;;;;;;;;;17.20;99.90;17.30;99398.00;;;;339191;28;88937;-88
2022/06/09 00:44:29;;;;;;;;;;;17.20;99.90;17.40;99399.00;;;;338862;28;88059;-88
2022/06/09 00:44:41;;;;;;;;;;;17.20;99.90;17.40;99389.00;;;;343212;27;90775;-87
2022/06/09 00:44:52;;;;;;;;;;;17.10;99.90;17.40;99389.00;;;;338950;28;87601;-87
2022/06/09 00:45:24;;;;;;;;;;;17.20;99.90;17.40;99395.00;;;;337699;28;90766;-87
2022/06/09 00:45:38;;;;;;;;;;;17.20;99.90;17.30;99395.00;;;;338922;28;86936;-87
2022/06/09 00:46:02;;;;;;;;;;;17.10;99.90;17.40;99397.00;;;;339096;28;90616;-87
2022/06/09 00:46:19;;;;;;;;;;;17.20;99.90;17.40;99388.00;;;;338803;28;87278;-88
2022/06/09 00:46:31;;;;;;;;;;;17.10;99.90;17.30;99390.00;;;;336530;28;90473;-87
2022/06/09 00:46:43;;;;;;;;;;;17.10;99.90;17.40;99383.00;;;;347321;28;87850;-87
2022/06/09 00:46:58;;;;;;;;;;;17.10;99.90;17.40;99390.00;;;;343527;28;89898;-87
2022/06/09 00:47:25;;;;;;;;;;;17.20;99.90;17.40;99396.00;;;;338798;28;87673;-88
2022/06/09 00:47:37;;;;;;;;;;;17.10;99.90;17.40;99385.00;;;;339121;28;90893;-87
2022/06/09 00:47:49;;;;;;;;;;;17.10;99.90;17.50;99385.00;;;;338829;28;87804;-88
2022/06/09 00:48:27;;;;;;;;;;;17.10;99.90;17.30;99392.00;;;;339194;28;90735;-87
2022/06/09 00:48:47;;;;;;;;;;;17.10;99.90;17.30;99384.00;;;;337392;28;87346;-87
2022/06/09 00:49:01;;;;;;;;;;;17.10;99.90;17.40;99383.00;;;;337845;28;90839;-87
2022/06/09 00:49:18;;;;;;;;;;;17.20;99.90;17.30;99386.00;;;;337501;28;88702;-87
2022/06/09 00:49:47;;;;;;;;;;;17.10;99.90;17.30;99373.00;;;;336576;28;90679;-87
2022/06/09 00:50:03;;;;;;;;;;;17.10;99.90;17.30;99376.00;;;;338778;28;86347;-88
2022/06/09 00:50:16;;;;;;;;;;;17.10;99.90;17.40;99380.00;;;;339166;28;88989;-87
2022/06/09 00:50:27;;;;;;;;;;;17.10;99.90;17.40;99386.00;;;;340002;28;86461;-87
2022/06/09 00:50:39;;;;;;;;;;;17.10;99.90;17.40;99387.00;;;;341778;28;90619;-87
2022/06/09 00:50:58;;;;;;;;;;;17.10;99.90;17.40;99384.00;;;;341550;28;86887;-88
2022/06/09 00:51:35;;;;;;;;;;;17.10;99.90;17.50;99384.00;;;;338790;28;90762;-87
2022/06/09 00:51:47;;;;;;;;;;;17.10;99.90;17.50;99377.00;;;;341258;28;87394;-87
2022/06/09 00:52:00;;;;;;;;;;;17.20;99.90;17.50;99387.00;;;;340452;28;90712;-87
2022/06/09 00:52:15;;;;;;;;;;;17.20;99.90;17.50;99389.00;;;;337683;28;86828;-87
2022/06/09 00:52:28;;;;;;;;;;;17.20;99.90;17.30;99380.00;;;;338964;28;89504;-87
2022/06/09 00:52:41;;;;;;;;;;;17.20;99.90;17.30;99388.00;;;;337618;28;86461;-87
2022/06/09 00:52:58;;;;;;;;;;;17.20;99.90;17.20;99377.00;;;;339330;28;88921;-87
2022/06/09 00:53:13;;;;;;;;;;;17.20;99.90;17.20;99390.00;;;;338839;28;87607;-88
2022/06/09 00:53:28;;;;;;;;;;;17.10;99.90;17.20;99391.00;;;;337842;28;89722;-87
2022/06/09 00:53:40;;;;;;;;;;;17.10;99.90;17.20;99391.00;;;;338921;28;87742;-87
2022/06/09 00:53:55;;;;;;;;;;;17.10;99.90;17.20;99390.00;;;;339237;28;89454;-88
2022/06/09 00:54:08;;;;;;;;;;;17.10;99.90;17.20;99384.00;;;;340093;28;87850;-87
2022/06/09 00:54:26;;;;;;;;;;;17.10;99.90;17.30;99387.00;;;;344672;28;90178;-87
2022/06/09 00:54:42;;;;;;;;;;;17.10;99.90;17.30;99389.00;;;;338845;28;86886;-87
2022/06/09 00:54:56;;;;;;;;;;;17.10;99.90;17.40;99389.00;;;;339190;28;90630;-87
2022/06/09 00:55:11;;;;;;;;;;;17.10;99.90;17.30;99399.00;;;;340002;28;86949;-88
2022/06/09 00:55:24;;;;;;;;;;;17.10;99.90;17.20;99395.00;;;;339202;28;90012;-87
2022/06/09 00:55:36;;;;;;;;;;;17.10;99.90;17.20;99388.00;;;;340139;28;87897;-87
2022/06/09 00:55:48;;;;;;;;;;;17.10;99.90;17.20;99393.00;;;;339111;28;89502;-88
2022/06/09 00:56:00;;;;;;;;;;;17.10;99.90;17.10;99387.00;;;;338954;28;86989;-87
2022/06/09 00:56:12;;;;;;;;;;;17.10;99.90;17.20;99386.00;;;;339152;28;90423;-87
2022/06/09 00:56:24;;;;;;;;;;;17.10;99.90;17.30;99387.00;;;;337443;28;87028;-88
2022/06/09 00:56:39;;;;;;;;;;;17.10;99.90;17.40;99385.00;;;;339147;28;89361;-87
2022/06/09 00:57:11;;;;;;;;;;;17.10;99.90;17.20;99394.00;;;;340066;28;88164;-88
2022/06/09 00:57:29;;;;;;;;;;;17.10;99.90;17.20;99384.00;;;;340465;28;90408;-87
2022/06/09 00:57:44;;;;;;;;;;;17.10;99.90;17.30;99389.00;;;;340023;28;88005;-87
2022/06/09 00:57:58;;;;;;;;;;;17.10;99.90;17.30;99385.00;;;;337887;28;88784;-87
2022/06/09 00:58:12;;;;;;;;;;;17.10;99.90;17.20;99383.00;;;;341494;28;87990;-87
2022/06/09 00:58:24;;;;;;;;;;;17.00;99.90;17.20;99381.00;;;;337756;28;90746;-87
2022/06/09 00:58:36;;;;;;;;;;;17.00;99.90;17.20;99370.00;;;;337554;28;88087;-87
2022/06/09 00:58:49;;;;;;;;;;;17.10;99.90;17.30;99383.00;;;;339175;28;90679;-87
2022/06/09 00:59:00;;;;;;;;;;;17.10;99.90;17.20;99382.00;;;;340263;28;86031;-87
2022/06/09 00:59:13;;;;;;;;;;;17.10;99.90;17.20;99374.00;;;;346140;28;90389;-87
2022/06/09 00:59:28;;;;;;;;;;;17.10;99.90;17.30;99379.00;;;;340016;28;86949;-87
2022/06/09 00:59:41;;;;;;;;;;;17.00;99.90;17.20;99377.00;;;;337821;28;90793;-87
2022/06/09 00:59:56;;;;;;;;;;;17.00;99.90;17.20;99375.00;;;;338996;28;86858;-87
2022/06/09 01:00:12;;;;;;;;;;;17.10;99.90;17.10;99373.00;;;;341752;28;89681;-86
2022/06/09 01:00:29;;;;;;;;;;;17.00;99.90;17.10;99376.00;;;;340586;28;87066;-87
2022/06/09 01:00:52;;;;;;;;;;;17.00;99.90;17.10;99378.00;;;;340452;28;90704;-87
2022/06/09 01:01:08;;;;;;;;;;;17.00;99.90;17.00;99367.00;;;;340165;28;87035;-87
2022/06/09 01:01:20;;;;;;;;;;;17.00;99.90;17.10;99378.00;;;;340409;28;90812;-87
2022/06/09 01:01:33;;;;;;;;;;;17.00;99.90;17.10;99376.00;;;;338942;28;87132;-87
2022/06/09 01:01:45;;;;;;;;;;;17.00;99.90;17.10;99370.00;;;;340419;28;89543;-87
2022/06/09 01:01:58;;;;;;;;;;;17.00;99.90;17.10;99372.00;;;;340264;28;86956;-87
2022/06/09 01:02:10;;;;;;;;;;;17.00;99.90;17.20;99373.00;;;;341856;28;90516;-86
2022/06/09 01:02:22;;;;;;;;;;;17.00;99.90;17.10;99368.00;;;;338925;28;86218;-87
2022/06/09 01:02:36;;;;;;;;;;;17.00;99.90;17.20;99365.00;;;;340487;28;89876;-87
2022/06/09 01:02:49;;;;;;;;;;;17.00;99.90;17.20;99375.00;;;;340186;28;88082;-88
2022/06/09 01:03:02;;;;;;;;;;;17.00;99.90;17.20;99370.00;;;;337810;28;89358;-87
2022/06/09 01:03:16;;;;;;;;;;;17.00;99.90;17.30;99371.00;;;;337600;28;88051;-88
2022/06/09 01:03:30;;;;;;;;;;;17.00;99.90;17.20;99371.00;;;;340438;28;90535;-87
2022/06/09 01:03:44;;;;;;;;;;;17.00;99.90;17.20;99373.00;;;;340173;28;88392;-87
2022/06/09 01:04:01;;;;;;;;;;;17.00;99.90;17.10;99376.00;;;;340341;28;89316;-87
2022/06/09 01:04:13;;;;;;;;;;;17.00;99.90;17.10;99371.00;;;;338922;28;88103;-87
2022/06/09 01:04:25;;;;;;;;;;;17.00;99.90;17.20;99366.00;;;;340414;28;87064;-87
2022/06/09 01:04:37;;;;;;;;;;;17.00;99.90;17.10;99366.00;;;;340294;28;87612;-87
2022/06/09 01:04:50;;;;;;;;;;;17.00;99.90;17.30;99379.00;;;;340424;28;88613;-87
2022/06/09 01:05:02;;;;;;;;;;;17.00;99.90;17.30;99367.00;;;;340156;28;87761;-88
2022/06/09 01:05:15;;;;;;;;;;;17.00;99.90;17.20;99366.00;;;;340541;28;89397;-87
2022/06/09 01:05:29;;;;;;;;;;;17.00;99.90;17.20;99373.00;;;;340183;28;87089;-87
2022/06/09 01:05:41;;;;;;;;;;;17.00;99.90;17.20;99363.00;;;;337743;28;89484;-87
2022/06/09 01:05:56;;;;;;;;;;;17.00;99.90;17.20;99371.00;;;;338898;28;86987;-87
2022/06/09 01:06:14;;;;;;;;;;;17.00;99.90;17.20;99367.00;;;;340262;28;90897;-87
2022/06/09 01:06:32;;;;;;;;;;;17.00;99.90;17.30;99372.00;;;;340117;28;88050;-87
2022/06/09 01:06:50;;;;;;;;;;;17.00;99.90;17.30;99373.00;;;;339097;28;90544;-88